sensor_id;sensor_type;location;lat;lon;timestamp;P1;durP1;ratioP1;P2;durP2;ratioP2
12976;SDS011;6553;48.412;9.514;2024-01-11T00:00:36;9.23;;;8.32;;
12976;SDS011;6553;48.412;9.514;2024-01-11T00:03:02;9.90;;;8.65;;
12976;SDS011;6553;48.412;9.514;2024-01-11T00:05:28;9.15;;;8.25;;
12976;SDS011;6553;48.412;9.514;2024-01-11T00:07:54;10.07;;;8.88;;
12976;SDS011;6553;48.412;9.514;2024-01-11T00:10:20;9.82;;;8.82;;
12976;SDS011;6553;48.412;9.514;2024-01-11T00:12:46;9.85;;;8.85;;
12976;SDS011;6553;48.412;9.514;2024-01-11T00:15:12;10.32;;;9.15;;
12976;SDS011;6553;48.412;9.514;2024-01-11T00:17:39;9.52;;;8.63;;
12976;SDS011;6553;48.412;9.514;2024-01-11T00:20:05;9.63;;;8.63;;
12976;SDS011;6553;48.412;9.514;2024-01-11T00:22:31;9.50;;;8.45;;
12976;SDS011;6553;48.412;9.514;2024-01-11T00:24:57;9.60;;;8.60;;
12976;SDS011;6553;48.412;9.514;2024-01-11T00:27:23;9.15;;;8.25;;
12976;SDS011;6553;48.412;9.514;2024-01-11T00:29:49;9.57;;;8.57;;
12976;SDS011;6553;48.412;9.514;2024-01-11T00:32:15;9.65;;;8.65;;
12976;SDS011;6553;48.412;9.514;2024-01-11T00:34:40;10.02;;;9.02;;
12976;SDS011;6553;48.412;9.514;2024-01-11T00:37:06;9.98;;;8.98;;
12976;SDS011;6553;48.412;9.514;2024-01-11T00:39:32;9.20;;;8.30;;
12976;SDS011;6553;48.412;9.514;2024-01-11T00:41:58;9.07;;;8.18;;
12976;SDS011;6553;48.412;9.514;2024-01-11T00:44:23;10.35;;;9.25;;
12976;SDS011;6553;48.412;9.514;2024-01-11T00:46:49;10.23;;;9.13;;
12976;SDS011;6553;48.412;9.514;2024-01-11T00:49:15;9.43;;;8.27;;
12976;SDS011;6553;48.412;9.514;2024-01-11T00:51:40;10.25;;;9.25;;
12976;SDS011;6553;48.412;9.514;2024-01-11T00:54:06;10.02;;;9.00;;
12976;SDS011;6553;48.412;9.514;2024-01-11T00:56:32;9.88;;;8.88;;
12976;SDS011;6553;48.412;9.514;2024-01-11T00:58:58;8.93;;;8.02;;
12976;SDS011;6553;48.412;9.514;2024-01-11T01:01:23;10.07;;;9.07;;
12976;SDS011;6553;48.412;9.514;2024-01-11T01:03:49;9.95;;;8.95;;
12976;SDS011;6553;48.412;9.514;2024-01-11T01:06:15;10.25;;;9.20;;
12976;SDS011;6553;48.412;9.514;2024-01-11T01:08:41;10.43;;;9.40;;
12976;SDS011;6553;48.412;9.514;2024-01-11T01:11:06;8.88;;;8.02;;
12976;SDS011;6553;48.412;9.514;2024-01-11T01:13:32;10.20;;;8.93;;
12976;SDS011;6553;48.412;9.514;2024-01-11T01:15:58;9.40;;;8.45;;
12976;SDS011;6553;48.412;9.514;2024-01-11T01:18:23;9.52;;;8.63;;
12976;SDS011;6553;48.412;9.514;2024-01-11T01:20:50;10.10;;;8.90;;
12976;SDS011;6553;48.412;9.514;2024-01-11T01:23:15;10.07;;;8.93;;
12976;SDS011;6553;48.412;9.514;2024-01-11T01:25:41;10.13;;;9.02;;
12976;SDS011;6553;48.412;9.514;2024-01-11T01:28:07;9.27;;;8.20;;
12976;SDS011;6553;48.412;9.514;2024-01-11T01:30:33;9.13;;;8.23;;
12976;SDS011;6553;48.412;9.514;2024-01-11T01:32:58;9.52;;;8.48;;
12976;SDS011;6553;48.412;9.514;2024-01-11T01:35:24;11.05;;;8.98;;
12976;SDS011;6553;48.412;9.514;2024-01-11T01:37:50;10.35;;;8.80;;
12976;SDS011;6553;48.412;9.514;2024-01-11T01:40:16;10.10;;;9.10;;
12976;SDS011;6553;48.412;9.514;2024-01-11T01:42:42;8.98;;;8.07;;
12976;SDS011;6553;48.412;9.514;2024-01-11T01:45:09;9.55;;;8.45;;
12976;SDS011;6553;48.412;9.514;2024-01-11T01:47:35;9.60;;;8.57;;
12976;SDS011;6553;48.412;9.514;2024-01-11T01:50:02;9.65;;;8.65;;
12976;SDS011;6553;48.412;9.514;2024-01-11T01:52:30;9.77;;;8.77;;
12976;SDS011;6553;48.412;9.514;2024-01-11T01:54:58;9.40;;;8.50;;
12976;SDS011;6553;48.412;9.514;2024-01-11T01:57:24;9.95;;;8.57;;
12976;SDS011;6553;48.412;9.514;2024-01-11T01:59:50;10.20;;;9.20;;
12976;SDS011;6553;48.412;9.514;2024-01-11T02:02:18;10.23;;;9.10;;
12976;SDS011;6553;48.412;9.514;2024-01-11T02:04:46;10.45;;;9.15;;
12976;SDS011;6553;48.412;9.514;2024-01-11T02:07:12;9.95;;;8.95;;
12976;SDS011;6553;48.412;9.514;2024-01-11T02:09:39;9.85;;;8.85;;
12976;SDS011;6553;48.412;9.514;2024-01-11T02:12:05;9.60;;;8.63;;
12976;SDS011;6553;48.412;9.514;2024-01-11T02:14:37;9.57;;;8.57;;
12976;SDS011;6553;48.412;9.514;2024-01-11T02:17:03;10.23;;;8.88;;
12976;SDS011;6553;48.412;9.514;2024-01-11T02:19:29;9.50;;;8.60;;
12976;SDS011;6553;48.412;9.514;2024-01-11T02:21:55;10.68;;;9.38;;
12976;SDS011;6553;48.412;9.514;2024-01-11T02:24:27;9.73;;;8.73;;
12976;SDS011;6553;48.412;9.514;2024-01-11T02:27:00;9.82;;;8.82;;
12976;SDS011;6553;48.412;9.514;2024-01-11T02:29:28;10.73;;;9.32;;
12976;SDS011;6553;48.412;9.514;2024-01-11T02:31:55;9.90;;;8.75;;
12976;SDS011;6553;48.412;9.514;2024-01-11T02:34:22;9.48;;;8.43;;
12976;SDS011;6553;48.412;9.514;2024-01-11T02:36:49;9.82;;;8.82;;
12976;SDS011;6553;48.412;9.514;2024-01-11T02:39:16;10.20;;;8.80;;
12976;SDS011;6553;48.412;9.514;2024-01-11T02:41:44;9.85;;;8.85;;
12976;SDS011;6553;48.412;9.514;2024-01-11T02:44:11;9.82;;;8.82;;
12976;SDS011;6553;48.412;9.514;2024-01-11T02:46:37;8.85;;;7.95;;
12976;SDS011;6553;48.412;9.514;2024-01-11T02:49:02;9.70;;;8.70;;
12976;SDS011;6553;48.412;9.514;2024-01-11T02:51:28;9.60;;;8.70;;
12976;SDS011;6553;48.412;9.514;2024-01-11T02:53:54;9.32;;;8.30;;
12976;SDS011;6553;48.412;9.514;2024-01-11T02:56:20;9.77;;;8.77;;
12976;SDS011;6553;48.412;9.514;2024-01-11T02:58:45;9.43;;;8.40;;
12976;SDS011;6553;48.412;9.514;2024-01-11T03:01:11;8.85;;;7.95;;
12976;SDS011;6553;48.412;9.514;2024-01-11T03:03:37;10.63;;;8.38;;
12976;SDS011;6553;48.412;9.514;2024-01-11T03:06:03;8.95;;;8.05;;
12976;SDS011;6553;48.412;9.514;2024-01-11T03:08:29;9.82;;;8.82;;
12976;SDS011;6553;48.412;9.514;2024-01-11T03:10:55;9.50;;;8.50;;
12976;SDS011;6553;48.412;9.514;2024-01-11T03:13:21;9.35;;;8.45;;
12976;SDS011;6553;48.412;9.514;2024-01-11T03:15:48;9.63;;;8.63;;
12976;SDS011;6553;48.412;9.514;2024-01-11T03:18:14;9.23;;;8.32;;
12976;SDS011;6553;48.412;9.514;2024-01-11T03:20:39;9.27;;;8.25;;
12976;SDS011;6553;48.412;9.514;2024-01-11T03:23:05;10.00;;;9.00;;
12976;SDS011;6553;48.412;9.514;2024-01-11T03:25:31;9.07;;;8.20;;
12976;SDS011;6553;48.412;9.514;2024-01-11T03:28:00;8.98;;;8.07;;
12976;SDS011;6553;48.412;9.514;2024-01-11T03:30:25;9.20;;;8.23;;
12976;SDS011;6553;48.412;9.514;2024-01-11T03:32:51;9.25;;;8.30;;
12976;SDS011;6553;48.412;9.514;2024-01-11T03:35:17;9.70;;;8.70;;
12976;SDS011;6553;48.412;9.514;2024-01-11T03:37:44;8.90;;;7.97;;
12976;SDS011;6553;48.412;9.514;2024-01-11T03:40:10;9.68;;;8.18;;
12976;SDS011;6553;48.412;9.514;2024-01-11T03:42:36;8.80;;;7.90;;
12976;SDS011;6553;48.412;9.514;2024-01-11T03:45:03;9.20;;;8.25;;
12976;SDS011;6553;48.412;9.514;2024-01-11T03:47:29;8.70;;;7.82;;
12976;SDS011;6553;48.412;9.514;2024-01-11T03:49:55;9.35;;;8.40;;
12976;SDS011;6553;48.412;9.514;2024-01-11T03:52:21;9.35;;;8.45;;
12976;SDS011;6553;48.412;9.514;2024-01-11T03:54:47;8.77;;;7.90;;
12976;SDS011;6553;48.412;9.514;2024-01-11T03:57:13;8.25;;;7.45;;
12976;SDS011;6553;48.412;9.514;2024-01-11T03:59:40;8.45;;;7.45;;
12976;SDS011;6553;48.412;9.514;2024-01-11T04:02:06;7.65;;;6.95;;
12976;SDS011;6553;48.412;9.514;2024-01-11T04:04:32;8.05;;;7.25;;
12976;SDS011;6553;48.412;9.514;2024-01-11T04:06:58;8.52;;;7.65;;
12976;SDS011;6553;48.412;9.514;2024-01-11T04:09:24;7.78;;;6.97;;
12976;SDS011;6553;48.412;9.514;2024-01-11T04:11:50;7.90;;;7.18;;
12976;SDS011;6553;48.412;9.514;2024-01-11T04:14:16;8.20;;;7.40;;
12976;SDS011;6553;48.412;9.514;2024-01-11T04:16:42;8.85;;;7.50;;
12976;SDS011;6553;48.412;9.514;2024-01-11T04:19:08;8.05;;;7.22;;
12976;SDS011;6553;48.412;9.514;2024-01-11T04:21:34;8.10;;;7.30;;
12976;SDS011;6553;48.412;9.514;2024-01-11T04:24:03;8.25;;;7.45;;
12976;SDS011;6553;48.412;9.514;2024-01-11T04:26:33;7.88;;;7.07;;
12976;SDS011;6553;48.412;9.514;2024-01-11T04:28:59;8.20;;;7.28;;
12976;SDS011;6553;48.412;9.514;2024-01-11T04:31:25;7.70;;;7.00;;
12976;SDS011;6553;48.412;9.514;2024-01-11T04:33:52;7.60;;;6.80;;
12976;SDS011;6553;48.412;9.514;2024-01-11T04:36:18;8.35;;;7.47;;
12976;SDS011;6553;48.412;9.514;2024-01-11T04:38:44;8.15;;;6.90;;
12976;SDS011;6553;48.412;9.514;2024-01-11T04:41:10;7.90;;;7.15;;
12976;SDS011;6553;48.412;9.514;2024-01-11T04:43:41;8.05;;;7.25;;
12976;SDS011;6553;48.412;9.514;2024-01-11T04:46:27;7.70;;;7.00;;
12976;SDS011;6553;48.412;9.514;2024-01-11T04:48:52;7.95;;;7.15;;
12976;SDS011;6553;48.412;9.514;2024-01-11T04:51:19;7.78;;;7.00;;
12976;SDS011;6553;48.412;9.514;2024-01-11T04:53:45;7.57;;;6.88;;
12976;SDS011;6553;48.412;9.514;2024-01-11T04:56:12;8.07;;;7.30;;
12976;SDS011;6553;48.412;9.514;2024-01-11T04:58:41;7.53;;;6.82;;
12976;SDS011;6553;48.412;9.514;2024-01-11T05:01:12;7.78;;;7.00;;
12976;SDS011;6553;48.412;9.514;2024-01-11T05:03:39;7.97;;;7.18;;
12976;SDS011;6553;48.412;9.514;2024-01-11T05:06:05;7.90;;;7.15;;
12976;SDS011;6553;48.412;9.514;2024-01-11T05:08:31;7.70;;;6.90;;
12976;SDS011;6553;48.412;9.514;2024-01-11T05:10:56;7.68;;;6.93;;
12976;SDS011;6553;48.412;9.514;2024-01-11T05:13:22;8.20;;;7.30;;
12976;SDS011;6553;48.412;9.514;2024-01-11T05:15:49;7.32;;;6.70;;
12976;SDS011;6553;48.412;9.514;2024-01-11T05:18:15;8.10;;;6.82;;
12976;SDS011;6553;48.412;9.514;2024-01-11T05:20:40;7.95;;;7.15;;
12976;SDS011;6553;48.412;9.514;2024-01-11T05:23:06;7.88;;;7.13;;
12976;SDS011;6553;48.412;9.514;2024-01-11T05:25:32;8.20;;;7.15;;
12976;SDS011;6553;48.412;9.514;2024-01-11T05:28:01;9.50;;;7.07;;
12976;SDS011;6553;48.412;9.514;2024-01-11T05:30:29;7.70;;;6.90;;
12976;SDS011;6553;48.412;9.514;2024-01-11T05:32:55;7.10;;;6.40;;
12976;SDS011;6553;48.412;9.514;2024-01-11T05:35:21;7.65;;;6.90;;
12976;SDS011;6553;48.412;9.514;2024-01-11T05:37:52;7.30;;;6.60;;
12976;SDS011;6553;48.412;9.514;2024-01-11T05:40:21;8.20;;;7.40;;
12976;SDS011;6553;48.412;9.514;2024-01-11T05:42:47;8.02;;;7.32;;
12976;SDS011;6553;48.412;9.514;2024-01-11T05:45:13;7.72;;;6.93;;
12976;SDS011;6553;48.412;9.514;2024-01-11T05:47:42;7.35;;;6.65;;
12976;SDS011;6553;48.412;9.514;2024-01-11T05:50:09;7.55;;;6.85;;
12976;SDS011;6553;48.412;9.514;2024-01-11T05:52:37;7.25;;;6.55;;
12976;SDS011;6553;48.412;9.514;2024-01-11T05:55:03;7.50;;;6.68;;
12976;SDS011;6553;48.412;9.514;2024-01-11T05:57:30;7.38;;;6.68;;
12976;SDS011;6553;48.412;9.514;2024-01-11T05:59:55;7.93;;;7.13;;
12976;SDS011;6553;48.412;9.514;2024-01-11T06:02:21;7.60;;;6.80;;
12976;SDS011;6553;48.412;9.514;2024-01-11T06:04:47;8.43;;;7.30;;
12976;SDS011;6553;48.412;9.514;2024-01-11T06:07:14;7.70;;;6.93;;
12976;SDS011;6553;48.412;9.514;2024-01-11T06:09:40;8.52;;;7.28;;
12976;SDS011;6553;48.412;9.514;2024-01-11T06:12:06;8.90;;;8.00;;
12976;SDS011;6553;48.412;9.514;2024-01-11T06:14:32;8.65;;;7.75;;
12976;SDS011;6553;48.412;9.514;2024-01-11T06:16:58;8.27;;;7.47;;
12976;SDS011;6553;48.412;9.514;2024-01-11T06:19:23;8.48;;;7.57;;
12976;SDS011;6553;48.412;9.514;2024-01-11T06:21:49;8.70;;;7.90;;
12976;SDS011;6553;48.412;9.514;2024-01-11T06:24:15;9.07;;;8.18;;
12976;SDS011;6553;48.412;9.514;2024-01-11T06:26:40;9.15;;;8.27;;
12976;SDS011;6553;48.412;9.514;2024-01-11T06:29:06;9.05;;;8.15;;
12976;SDS011;6553;48.412;9.514;2024-01-11T06:31:32;8.82;;;8.02;;
12976;SDS011;6553;48.412;9.514;2024-01-11T06:33:58;8.38;;;7.60;;
12976;SDS011;6553;48.412;9.514;2024-01-11T06:36:23;9.05;;;8.15;;
12976;SDS011;6553;48.412;9.514;2024-01-11T06:38:49;9.65;;;8.60;;
12976;SDS011;6553;48.412;9.514;2024-01-11T06:41:15;8.35;;;7.55;;
12976;SDS011;6553;48.412;9.514;2024-01-11T06:43:41;9.27;;;8.38;;
12976;SDS011;6553;48.412;9.514;2024-01-11T06:46:06;8.82;;;7.97;;
12976;SDS011;6553;48.412;9.514;2024-01-11T06:48:34;8.73;;;7.82;;
12976;SDS011;6553;48.412;9.514;2024-01-11T06:51:00;9.07;;;7.88;;
12976;SDS011;6553;48.412;9.514;2024-01-11T06:53:25;8.07;;;7.28;;
12976;SDS011;6553;48.412;9.514;2024-01-11T06:55:51;8.05;;;7.35;;
12976;SDS011;6553;48.412;9.514;2024-01-11T06:58:20;9.32;;;8.43;;
12976;SDS011;6553;48.412;9.514;2024-01-11T07:00:49;8.23;;;7.43;;
12976;SDS011;6553;48.412;9.514;2024-01-11T07:03:15;8.63;;;7.72;;
12976;SDS011;6553;48.412;9.514;2024-01-11T07:05:42;8.68;;;7.75;;
12976;SDS011;6553;48.412;9.514;2024-01-11T07:08:07;9.90;;;8.70;;
12976;SDS011;6553;48.412;9.514;2024-01-11T07:10:33;9.55;;;8.57;;
12976;SDS011;6553;48.412;9.514;2024-01-11T07:12:59;9.32;;;8.38;;
12976;SDS011;6553;48.412;9.514;2024-01-11T07:15:24;9.38;;;8.40;;
12976;SDS011;6553;48.412;9.514;2024-01-11T07:17:50;8.23;;;7.45;;
12976;SDS011;6553;48.412;9.514;2024-01-11T07:20:16;8.95;;;7.85;;
12976;SDS011;6553;48.412;9.514;2024-01-11T07:22:43;8.80;;;7.70;;
12976;SDS011;6553;48.412;9.514;2024-01-11T07:25:09;8.55;;;7.65;;
12976;SDS011;6553;48.412;9.514;2024-01-11T07:27:35;8.75;;;7.88;;
12976;SDS011;6553;48.412;9.514;2024-01-11T07:30:01;8.70;;;7.88;;
12976;SDS011;6553;48.412;9.514;2024-01-11T07:32:28;8.77;;;7.93;;
12976;SDS011;6553;48.412;9.514;2024-01-11T07:34:53;9.27;;;8.32;;
12976;SDS011;6553;48.412;9.514;2024-01-11T07:37:19;7.97;;;7.25;;
12976;SDS011;6553;48.412;9.514;2024-01-11T07:39:45;9.05;;;8.15;;
12976;SDS011;6553;48.412;9.514;2024-01-11T07:42:11;8.88;;;7.97;;
12976;SDS011;6553;48.412;9.514;2024-01-11T07:44:36;9.05;;;7.90;;
12976;SDS011;6553;48.412;9.514;2024-01-11T07:47:02;9.40;;;8.50;;
12976;SDS011;6553;48.412;9.514;2024-01-11T07:49:28;9.45;;;8.52;;
12976;SDS011;6553;48.412;9.514;2024-01-11T07:51:54;8.50;;;7.70;;
12976;SDS011;6553;48.412;9.514;2024-01-11T07:54:19;8.35;;;7.50;;
12976;SDS011;6553;48.412;9.514;2024-01-11T07:56:45;9.35;;;8.38;;
12976;SDS011;6553;48.412;9.514;2024-01-11T07:59:11;9.73;;;8.73;;
12976;SDS011;6553;48.412;9.514;2024-01-11T08:01:39;9.15;;;8.15;;
12976;SDS011;6553;48.412;9.514;2024-01-11T08:04:05;9.15;;;8.25;;
12976;SDS011;6553;48.412;9.514;2024-01-11T08:06:31;8.85;;;8.02;;
12976;SDS011;6553;48.412;9.514;2024-01-11T08:08:57;9.15;;;8.23;;
12976;SDS011;6553;48.412;9.514;2024-01-11T08:11:23;9.68;;;8.77;;
12976;SDS011;6553;48.412;9.514;2024-01-11T08:13:48;9.27;;;8.38;;
12976;SDS011;6553;48.412;9.514;2024-01-11T08:16:17;9.77;;;8.80;;
12976;SDS011;6553;48.412;9.514;2024-01-11T08:18:43;9.73;;;8.75;;
12976;SDS011;6553;48.412;9.514;2024-01-11T08:21:10;9.55;;;8.65;;
12976;SDS011;6553;48.412;9.514;2024-01-11T08:23:37;9.60;;;8.70;;
12976;SDS011;6553;48.412;9.514;2024-01-11T08:26:11;8.88;;;7.97;;
12976;SDS011;6553;48.412;9.514;2024-01-11T08:28:38;9.48;;;8.55;;
12976;SDS011;6553;48.412;9.514;2024-01-11T08:31:05;10.20;;;8.40;;
12976;SDS011;6553;48.412;9.514;2024-01-11T08:33:32;9.00;;;8.10;;
12976;SDS011;6553;48.412;9.514;2024-01-11T08:35:57;9.45;;;8.45;;
12976;SDS011;6553;48.412;9.514;2024-01-11T08:38:23;12.05;;;8.30;;
12976;SDS011;6553;48.412;9.514;2024-01-11T08:40:50;10.02;;;8.80;;
12976;SDS011;6553;48.412;9.514;2024-01-11T08:43:16;9.55;;;8.55;;
12976;SDS011;6553;48.412;9.514;2024-01-11T08:45:42;8.63;;;7.80;;
12976;SDS011;6553;48.412;9.514;2024-01-11T08:48:11;9.90;;;8.90;;
12976;SDS011;6553;48.412;9.514;2024-01-11T08:50:38;9.90;;;8.90;;
12976;SDS011;6553;48.412;9.514;2024-01-11T08:53:04;9.32;;;8.43;;
12976;SDS011;6553;48.412;9.514;2024-01-11T08:55:29;9.30;;;8.45;;
12976;SDS011;6553;48.412;9.514;2024-01-11T08:57:55;9.32;;;8.43;;
12976;SDS011;6553;48.412;9.514;2024-01-11T09:00:21;9.07;;;8.18;;
12976;SDS011;6553;48.412;9.514;2024-01-11T09:02:47;9.18;;;8.27;;
12976;SDS011;6553;48.412;9.514;2024-01-11T09:05:16;9.10;;;8.20;;
12976;SDS011;6553;48.412;9.514;2024-01-11T09:07:41;8.73;;;7.82;;
12976;SDS011;6553;48.412;9.514;2024-01-11T09:10:07;9.50;;;8.60;;
12976;SDS011;6553;48.412;9.514;2024-01-11T09:12:34;8.90;;;8.10;;
12976;SDS011;6553;48.412;9.514;2024-01-11T09:15:01;9.13;;;8.23;;
12976;SDS011;6553;48.412;9.514;2024-01-11T09:17:28;9.38;;;8.50;;
12976;SDS011;6553;48.412;9.514;2024-01-11T09:19:54;8.27;;;7.57;;
12976;SDS011;6553;48.412;9.514;2024-01-11T09:22:19;9.48;;;8.48;;
12976;SDS011;6553;48.412;9.514;2024-01-11T09:24:45;9.57;;;8.30;;
12976;SDS011;6553;48.412;9.514;2024-01-11T09:27:11;9.73;;;8.77;;
12976;SDS011;6553;48.412;9.514;2024-01-11T09:29:42;8.45;;;7.57;;
12976;SDS011;6553;48.412;9.514;2024-01-11T09:32:09;9.65;;;8.65;;
12976;SDS011;6553;48.412;9.514;2024-01-11T09:34:35;8.90;;;8.00;;
12976;SDS011;6553;48.412;9.514;2024-01-11T09:37:00;9.65;;;8.43;;
12976;SDS011;6553;48.412;9.514;2024-01-11T09:39:26;8.98;;;8.10;;
12976;SDS011;6553;48.412;9.514;2024-01-11T09:41:59;8.88;;;8.05;;
12976;SDS011;6553;48.412;9.514;2024-01-11T09:44:36;8.65;;;7.72;;
12976;SDS011;6553;48.412;9.514;2024-01-11T09:47:03;9.02;;;8.05;;
12976;SDS011;6553;48.412;9.514;2024-01-11T09:49:32;9.27;;;8.38;;
12976;SDS011;6553;48.412;9.514;2024-01-11T09:52:00;9.43;;;8.50;;
12976;SDS011;6553;48.412;9.514;2024-01-11T09:54:28;8.95;;;8.05;;
12976;SDS011;6553;48.412;9.514;2024-01-11T09:56:54;9.27;;;8.00;;
12976;SDS011;6553;48.412;9.514;2024-01-11T09:59:24;9.35;;;8.30;;
12976;SDS011;6553;48.412;9.514;2024-01-11T10:01:50;8.80;;;7.93;;
12976;SDS011;6553;48.412;9.514;2024-01-11T10:04:17;9.05;;;8.15;;
12976;SDS011;6553;48.412;9.514;2024-01-11T10:06:44;9.43;;;8.18;;
12976;SDS011;6553;48.412;9.514;2024-01-11T10:09:10;8.48;;;7.60;;
12976;SDS011;6553;48.412;9.514;2024-01-11T10:11:37;8.80;;;7.82;;
12976;SDS011;6553;48.412;9.514;2024-01-11T10:14:03;8.23;;;7.43;;
12976;SDS011;6553;48.412;9.514;2024-01-11T10:16:30;8.88;;;7.97;;
12976;SDS011;6553;48.412;9.514;2024-01-11T10:18:56;9.07;;;8.15;;
12976;SDS011;6553;48.412;9.514;2024-01-11T10:21:26;9.15;;;8.13;;
12976;SDS011;6553;48.412;9.514;2024-01-11T10:23:53;8.82;;;8.02;;
12976;SDS011;6553;48.412;9.514;2024-01-11T10:26:19;8.48;;;7.57;;
12976;SDS011;6553;48.412;9.514;2024-01-11T10:28:46;9.43;;;8.43;;
12976;SDS011;6553;48.412;9.514;2024-01-11T10:31:12;9.25;;;8.30;;
12976;SDS011;6553;48.412;9.514;2024-01-11T10:33:42;8.98;;;8.07;;
12976;SDS011;6553;48.412;9.514;2024-01-11T10:36:08;8.20;;;7.40;;
12976;SDS011;6553;48.412;9.514;2024-01-11T10:38:37;8.82;;;7.93;;
12976;SDS011;6553;48.412;9.514;2024-01-11T10:41:05;8.80;;;8.00;;
12976;SDS011;6553;48.412;9.514;2024-01-11T10:43:35;8.45;;;7.53;;
12976;SDS011;6553;48.412;9.514;2024-01-11T10:46:03;8.85;;;7.72;;
12976;SDS011;6553;48.412;9.514;2024-01-11T10:48:32;8.02;;;7.18;;
12976;SDS011;6553;48.412;9.514;2024-01-11T10:51:05;8.63;;;7.72;;
12976;SDS011;6553;48.412;9.514;2024-01-11T10:53:47;8.52;;;7.72;;
12976;SDS011;6553;48.412;9.514;2024-01-11T10:56:15;9.10;;;8.20;;
12976;SDS011;6553;48.412;9.514;2024-01-11T10:58:42;9.70;;;8.70;;
12976;SDS011;6553;48.412;9.514;2024-01-11T11:01:12;8.70;;;7.80;;
12976;SDS011;6553;48.412;9.514;2024-01-11T11:03:39;8.13;;;7.32;;
12976;SDS011;6553;48.412;9.514;2024-01-11T11:06:07;8.27;;;7.47;;
12976;SDS011;6553;48.412;9.514;2024-01-11T11:08:34;7.82;;;7.13;;
12976;SDS011;6553;48.412;9.514;2024-01-11T11:11:05;8.55;;;7.75;;
12976;SDS011;6553;48.412;9.514;2024-01-11T11:13:31;8.15;;;7.35;;
12976;SDS011;6553;48.412;9.514;2024-01-11T11:16:00;7.93;;;7.13;;
12976;SDS011;6553;48.412;9.514;2024-01-11T11:18:28;8.93;;;8.02;;
12976;SDS011;6553;48.412;9.514;2024-01-11T11:20:56;7.85;;;7.05;;
12976;SDS011;6553;48.412;9.514;2024-01-11T11:23:22;8.00;;;7.20;;
12976;SDS011;6553;48.412;9.514;2024-01-11T11:25:49;7.85;;;7.03;;
12976;SDS011;6553;48.412;9.514;2024-01-11T11:28:16;8.63;;;7.82;;
12976;SDS011;6553;48.412;9.514;2024-01-11T11:30:44;8.13;;;7.32;;
12976;SDS011;6553;48.412;9.514;2024-01-11T11:33:23;8.43;;;7.50;;
12976;SDS011;6553;48.412;9.514;2024-01-11T11:36:09;8.02;;;7.22;;
12976;SDS011;6553;48.412;9.514;2024-01-11T11:38:39;8.20;;;7.40;;
12976;SDS011;6553;48.412;9.514;2024-01-11T11:41:04;8.52;;;7.63;;
12976;SDS011;6553;48.412;9.514;2024-01-11T11:43:30;8.80;;;7.90;;
12976;SDS011;6553;48.412;9.514;2024-01-11T11:45:57;8.65;;;7.75;;
12976;SDS011;6553;48.412;9.514;2024-01-11T11:53:36;8.00;;;7.20;;
12976;SDS011;6553;48.412;9.514;2024-01-11T11:56:04;8.10;;;7.30;;
12976;SDS011;6553;48.412;9.514;2024-01-11T11:58:32;7.80;;;7.05;;
12976;SDS011;6553;48.412;9.514;2024-01-11T12:01:00;8.45;;;7.55;;
12976;SDS011;6553;48.412;9.514;2024-01-11T12:05:59;7.85;;;7.15;;
12976;SDS011;6553;48.412;9.514;2024-01-11T12:08:25;7.97;;;7.18;;
12976;SDS011;6553;48.412;9.514;2024-01-11T12:10:52;8.07;;;7.28;;
12976;SDS011;6553;48.412;9.514;2024-01-11T12:13:18;8.65;;;7.85;;
12976;SDS011;6553;48.412;9.514;2024-01-11T12:15:45;8.38;;;7.50;;
12976;SDS011;6553;48.412;9.514;2024-01-11T12:18:12;8.80;;;7.68;;
12976;SDS011;6553;48.412;9.514;2024-01-11T12:20:37;8.00;;;7.18;;
12976;SDS011;6553;48.412;9.514;2024-01-11T12:23:03;7.93;;;7.13;;
12976;SDS011;6553;48.412;9.514;2024-01-11T12:25:30;7.65;;;6.95;;
12976;SDS011;6553;48.412;9.514;2024-01-11T12:27:56;7.97;;;7.18;;
12976;SDS011;6553;48.412;9.514;2024-01-11T12:30:23;7.57;;;6.88;;
12976;SDS011;6553;48.412;9.514;2024-01-11T12:32:50;7.60;;;6.85;;
12976;SDS011;6553;48.412;9.514;2024-01-11T12:35:16;7.70;;;7.03;;
12976;SDS011;6553;48.412;9.514;2024-01-11T12:37:53;8.40;;;7.55;;
12976;SDS011;6553;48.412;9.514;2024-01-11T12:40:20;7.10;;;6.40;;
12976;SDS011;6553;48.412;9.514;2024-01-11T12:42:49;7.82;;;7.03;;
12976;SDS011;6553;48.412;9.514;2024-01-11T12:45:15;7.72;;;7.03;;
12976;SDS011;6553;48.412;9.514;2024-01-11T12:47:42;7.70;;;7.00;;
12976;SDS011;6553;48.412;9.514;2024-01-11T12:50:09;7.70;;;6.97;;
12976;SDS011;6553;48.412;9.514;2024-01-11T12:52:37;8.00;;;7.28;;
12976;SDS011;6553;48.412;9.514;2024-01-11T12:55:04;7.22;;;6.53;;
12976;SDS011;6553;48.412;9.514;2024-01-11T12:57:33;7.28;;;6.57;;
12976;SDS011;6553;48.412;9.514;2024-01-11T13:00:11;7.30;;;6.60;;
12976;SDS011;6553;48.412;9.514;2024-01-11T13:02:41;8.43;;;6.90;;
12976;SDS011;6553;48.412;9.514;2024-01-11T13:05:11;7.72;;;6.70;;
12976;SDS011;6553;48.412;9.514;2024-01-11T13:07:37;7.53;;;6.82;;
12976;SDS011;6553;48.412;9.514;2024-01-11T13:10:03;8.07;;;7.28;;
12976;SDS011;6553;48.412;9.514;2024-01-11T13:12:30;7.35;;;6.65;;
12976;SDS011;6553;48.412;9.514;2024-01-11T13:14:56;7.45;;;6.75;;
12976;SDS011;6553;48.412;9.514;2024-01-11T13:17:22;7.20;;;6.50;;
12976;SDS011;6553;48.412;9.514;2024-01-11T13:19:48;7.32;;;6.70;;
12976;SDS011;6553;48.412;9.514;2024-01-11T13:22:14;7.13;;;6.43;;
12976;SDS011;6553;48.412;9.514;2024-01-11T13:24:40;7.13;;;6.38;;
12976;SDS011;6553;48.412;9.514;2024-01-11T13:27:06;6.63;;;6.03;;
12976;SDS011;6553;48.412;9.514;2024-01-11T13:29:31;7.13;;;6.43;;
12976;SDS011;6553;48.412;9.514;2024-01-11T13:31:57;7.03;;;6.32;;
12976;SDS011;6553;48.412;9.514;2024-01-11T13:34:23;7.00;;;6.30;;
12976;SDS011;6553;48.412;9.514;2024-01-11T13:36:48;7.60;;;6.78;;
12976;SDS011;6553;48.412;9.514;2024-01-11T13:39:15;7.25;;;6.55;;
12976;SDS011;6553;48.412;9.514;2024-01-11T13:41:43;7.30;;;6.60;;
12976;SDS011;6553;48.412;9.514;2024-01-11T13:44:09;8.00;;;6.82;;
12976;SDS011;6553;48.412;9.514;2024-01-11T13:46:36;6.75;;;6.15;;
12976;SDS011;6553;48.412;9.514;2024-01-11T13:49:02;8.13;;;6.63;;
12976;SDS011;6553;48.412;9.514;2024-01-11T13:51:29;7.15;;;6.45;;
12976;SDS011;6553;48.412;9.514;2024-01-11T13:53:57;6.75;;;5.97;;
12976;SDS011;6553;48.412;9.514;2024-01-11T13:56:24;7.07;;;6.38;;
12976;SDS011;6553;48.412;9.514;2024-01-11T13:58:50;6.72;;;6.13;;
12976;SDS011;6553;48.412;9.514;2024-01-11T14:01:16;6.35;;;5.75;;
12976;SDS011;6553;48.412;9.514;2024-01-11T14:03:42;7.03;;;6.35;;
12976;SDS011;6553;48.412;9.514;2024-01-11T14:06:07;6.72;;;6.03;;
12976;SDS011;6553;48.412;9.514;2024-01-11T14:08:33;6.57;;;5.97;;
12976;SDS011;6553;48.412;9.514;2024-01-11T14:11:00;6.68;;;5.97;;
12976;SDS011;6553;48.412;9.514;2024-01-11T14:13:25;6.70;;;6.05;;
12976;SDS011;6553;48.412;9.514;2024-01-11T14:15:51;7.53;;;6.15;;
12976;SDS011;6553;48.412;9.514;2024-01-11T14:18:18;6.38;;;5.72;;
12976;SDS011;6553;48.412;9.514;2024-01-11T14:20:47;7.18;;;6.47;;
12976;SDS011;6553;48.412;9.514;2024-01-11T14:23:13;6.82;;;6.18;;
12976;SDS011;6553;48.412;9.514;2024-01-11T14:25:39;6.45;;;5.85;;
12976;SDS011;6553;48.412;9.514;2024-01-11T14:28:05;7.13;;;6.43;;
12976;SDS011;6553;48.412;9.514;2024-01-11T14:30:31;6.53;;;5.93;;
12976;SDS011;6553;48.412;9.514;2024-01-11T14:32:57;6.25;;;5.65;;
12976;SDS011;6553;48.412;9.514;2024-01-11T14:35:22;7.28;;;6.57;;
12976;SDS011;6553;48.412;9.514;2024-01-11T14:37:48;6.63;;;5.93;;
12976;SDS011;6553;48.412;9.514;2024-01-11T14:40:14;6.25;;;5.65;;
12976;SDS011;6553;48.412;9.514;2024-01-11T14:42:40;6.47;;;5.88;;
12976;SDS011;6553;48.412;9.514;2024-01-11T14:45:06;6.85;;;6.25;;
12976;SDS011;6553;48.412;9.514;2024-01-11T14:47:33;6.60;;;6.00;;
12976;SDS011;6553;48.412;9.514;2024-01-11T14:49:59;7.28;;;6.60;;
12976;SDS011;6553;48.412;9.514;2024-01-11T14:52:25;6.63;;;5.93;;
12976;SDS011;6553;48.412;9.514;2024-01-11T14:54:51;6.50;;;5.90;;
12976;SDS011;6553;48.412;9.514;2024-01-11T14:57:17;6.78;;;6.13;;
12976;SDS011;6553;48.412;9.514;2024-01-11T14:59:43;6.40;;;5.80;;
12976;SDS011;6553;48.412;9.514;2024-01-11T15:02:10;6.13;;;5.53;;
12976;SDS011;6553;48.412;9.514;2024-01-11T15:04:36;6.43;;;5.80;;